Time;durP1;ratioP1;P1;durP2;ratioP2;P2;SDS_P1;SDS_P2;PMS_P1;PMS_P2;Temp;Humidity;BMP_temperature;BMP_pressure;BME280_temperature;BME280_humidity;BME280_pressure;Samples;Min_cycle;Max_cycle;Signal;HPM_P1;HPM_P2
2023/10/16 00:00:40;;;;;;;4.80;0.30;;;;;;;7.51;100.00;99634.52;88441;282;136509;-80
2023/10/16 00:02:43;;;;;;;0.90;0.30;;;;;;;7.52;100.00;99641.02;88585;278;24102;-77
2023/10/16 00:04:45;;;;;;;1.80;0.30;;;;;;;7.53;100.00;99636.70;88368;278;136636;-78
2023/10/16 00:06:49;;;;;;;0.80;0.20;;;;;;;7.55;100.00;99636.91;88663;273;22558;-78
2023/10/16 00:09:00;;;;;;;0.70;0.40;;;;;;;7.56;100.00;99638.77;89255;275;136240;-78
2023/10/16 00:11:03;;;;;;;0.90;0.30;;;;;;;7.57;100.00;99641.20;89640;281;22515;-79
2023/10/16 00:13:07;;;;;;;1.30;0.20;;;;;;;7.55;100.00;99639.63;88654;274;138149;-78
2023/10/16 00:15:09;;;;;;;2.30;0.50;;;;;;;7.55;100.00;99643.48;88559;274;23208;-78
2023/10/16 00:17:13;;;;;;;1.60;0.40;;;;;;;7.55;100.00;99644.55;88341;283;136250;-79
2023/10/16 00:19:16;;;;;;;1.90;0.20;;;;;;;7.55;100.00;99639.79;88607;282;23794;-79
2023/10/16 00:21:18;;;;;;;1.00;0.30;;;;;;;7.54;100.00;99641.09;88482;282;136671;-81
2023/10/16 00:23:30;;;;;;;5.90;0.40;;;;;;;7.53;100.00;99640.55;88532;274;24027;-79
2023/10/16 00:25:38;;;;;;;0.30;0.20;;;;;;;7.51;100.00;99642.20;88397;276;138748;-78
2023/10/16 00:27:39;;;;;;;3.60;0.50;;;;;;;7.52;100.00;99638.94;88516;282;25262;-76
2023/10/16 00:29:43;;;;;;;3.70;1.00;;;;;;;7.52;100.00;99641.92;88402;275;138071;-80
2023/10/16 00:31:44;;;;;;;3.90;0.30;;;;;;;7.51;100.00;99637.95;88455;275;25166;-80
2023/10/16 00:33:53;;;;;;;0.80;0.40;;;;;;;7.50;100.00;99636.91;88365;275;136869;-79
2023/10/16 00:35:55;;;;;;;2.30;0.30;;;;;;;7.50;100.00;99636.02;88470;283;22563;-81
2023/10/16 00:39:50;;;;;;;1.10;0.30;;;;;;;7.41;100.00;99632.45;87051;304;602950;-80
2023/10/16 00:41:57;;;;;;;3.80;0.70;;;;;;;7.38;100.00;99631.38;87866;293;135628;-76
2023/10/16 00:43:59;;;;;;;;;;;;;;;7.39;100.00;99634.41;88250;285;24267;-77
2023/10/16 00:46:08;;;;;;;2.50;0.40;;;;;;;7.40;100.00;99632.56;88327;287;25090;-76
2023/10/16 00:48:12;;;;;;;3.50;0.50;;;;;;;7.35;100.00;99625.72;88136;288;136183;-78
2023/10/16 00:50:14;;;;;;;1.80;0.40;;;;;;;7.34;100.00;99621.14;89037;282;24027;-73
2023/10/16 00:52:18;;;;;;;1.10;0.30;;;;;;;7.34;100.00;99620.56;89245;282;135719;-75
2023/10/16 00:54:28;;;;;;;1.40;0.30;;;;;;;7.33;100.00;99621.74;89706;280;485060;-73
2023/10/16 00:56:31;;;;;;;2.00;0.30;;;;;;;7.35;100.00;99620.96;88561;280;137663;-76
2023/10/16 00:58:36;;;;;;;3.60;0.20;;;;;;;7.34;100.00;99615.51;88632;281;22517;-76
2023/10/16 01:00:38;;;;;;;1.90;0.80;;;;;;;7.31;100.00;99611.40;88427;282;136611;-79
2023/10/16 01:02:40;;;;;;;2.50;0.50;;;;;;;7.28;100.00;99613.88;88599;281;25099;-79
2023/10/16 01:04:43;;;;;;;1.50;0.60;;;;;;;7.26;100.00;99611.73;88571;280;137358;-79
2023/10/16 01:06:46;;;;;;;4.80;0.60;;;;;;;7.22;100.00;99614.54;88695;277;22702;-76
2023/10/16 01:08:50;;;;;;;1.10;0.20;;;;;;;7.21;100.00;99614.70;88428;278;136047;-78
2023/10/16 01:10:57;;;;;;;2.30;0.40;;;;;;;7.19;100.00;99613.11;88567;280;25223;-78
2023/10/16 01:13:02;;;;;;;1.30;0.10;;;;;;;7.18;100.00;99615.23;88492;281;136291;-76
2023/10/16 01:15:09;;;;;;;1.30;0.40;;;;;;;7.14;100.00;99616.04;88593;281;22660;-79
2023/10/16 01:17:12;;;;;;;5.20;0.60;;;;;;;7.10;100.00;99613.36;88994;280;136262;-79
2023/10/16 01:19:19;;;;;;;1.90;0.50;;;;;;;7.07;100.00;99607.24;89367;272;22489;-76
2023/10/16 01:21:23;;;;;;;1.30;0.40;;;;;;;7.06;100.00;99611.39;89246;273;136250;-73
2023/10/16 01:23:25;;;;;;;0.70;0.30;;;;;;;7.04;100.00;99608.92;89146;282;22511;-75
2023/10/16 01:25:27;;;;;;;2.30;0.30;;;;;;;7.03;100.00;99609.67;88981;277;136266;-72
2023/10/16 01:27:29;;;;;;;0.70;0.60;;;;;;;6.99;100.00;99604.13;89247;281;22478;-76
2023/10/16 01:29:33;;;;;;;0.90;0.30;;;;;;;6.94;100.00;99605.73;89601;282;135953;-75
2023/10/16 01:31:36;;;;;;;1.10;0.30;;;;;;;6.89;100.00;99605.94;89085;274;22868;-75
2023/10/16 01:33:44;;;;;;;0.80;0.10;;;;;;;6.88;100.00;99605.77;88984;277;136627;-75
2023/10/16 01:35:46;;;;;;;2.10;0.20;;;;;;;6.86;100.00;99606.88;89739;280;25203;-75
2023/10/16 01:37:52;;;;;;;2.50;0.20;;;;;;;6.83;100.00;99606.34;89737;280;136072;-76
2023/10/16 01:39:55;;;;;;;1.10;0.30;;;;;;;6.76;100.00;99597.61;89664;280;22695;-77
2023/10/16 01:42:01;;;;;;;0.30;0.20;;;;;;;6.79;100.00;99606.39;89302;280;136090;-76
2023/10/16 01:44:09;;;;;;;1.70;0.30;;;;;;;6.78;100.00;99611.26;89256;277;136548;-66
2023/10/16 01:46:13;;;;;;;1.40;0.20;;;;;;;6.79;100.00;99612.96;89198;274;25105;-75
2023/10/16 01:48:19;;;;;;;5.60;1.70;;;;;;;6.80;100.00;99610.71;89120;277;136459;-76
2023/10/16 01:50:22;;;;;;;0.70;0.20;;;;;;;6.79;100.00;99608.38;89356;280;22868;-78
2023/10/16 01:52:25;;;;;;;2.20;0.10;;;;;;;6.78;100.00;99607.25;89782;274;137491;-78
2023/10/16 01:54:29;;;;;;;1.10;0.30;;;;;;;6.78;100.00;99601.30;89039;282;22824;-81
2023/10/16 01:56:31;;;;;;;0.80;0.40;;;;;;;6.77;100.00;99596.64;88766;282;136380;-76
2023/10/16 01:58:34;;;;;;;1.20;0.30;;;;;;;6.74;100.00;99594.15;88862;280;22533;-80
2023/10/16 02:00:36;;;;;;;1.50;0.20;;;;;;;6.69;100.00;99587.13;88794;272;138001;-77
2023/10/16 02:02:39;;;;;;;1.90;0.20;;;;;;;6.67;100.00;99580.56;89260;280;22705;-77
2023/10/16 02:04:42;;;;;;;1.60;1.30;;;;;;;6.65;100.00;99581.11;88658;277;137353;-76
2023/10/16 02:06:46;;;;;;;0.40;0.30;;;;;;;6.64;100.00;99577.27;88889;274;25117;-75
2023/10/16 02:08:54;;;;;;;1.60;0.50;;;;;;;6.62;100.00;99577.12;88566;273;136151;-79
2023/10/16 02:10:57;;;;;;;1.00;0.30;;;;;;;6.55;100.00;99562.66;88438;284;22717;-76
2023/10/16 02:12:59;;;;;;;2.50;1.00;;;;;;;6.59;100.00;99571.89;88626;275;136375;-74
2023/10/16 02:15:06;;;;;;;1.50;0.20;;;;;;;6.58;100.00;99568.63;88839;274;25173;-78
2023/10/16 02:17:18;;;;;;;0.80;0.30;;;;;;;6.59;100.00;99567.48;88626;280;136318;-81
2023/10/16 02:19:21;;;;;;;0.80;0.40;;;;;;;6.60;100.00;99566.36;88820;282;22537;-76
2023/10/16 02:21:23;;;;;;;2.70;0.80;;;;;;;6.62;100.00;99572.02;88551;280;137962;-79
2023/10/16 02:23:30;;;;;;;1.20;0.40;;;;;;;6.64;100.00;99568.11;88813;281;25067;-81
2023/10/16 02:25:34;;;;;;;1.90;0.50;;;;;;;6.65;100.00;99563.46;88555;277;136642;-80
2023/10/16 02:27:36;;;;;;;2.20;0.40;;;;;;;6.66;100.00;99564.62;88667;281;25109;-79
2023/10/16 02:29:45;;;;;;;2.20;0.30;;;;;;;6.66;100.00;99562.04;88530;280;135935;-78
2023/10/16 02:31:47;;;;;;;5.80;0.80;;;;;;;6.68;100.00;99563.05;88533;281;25213;-75
2023/10/16 02:33:56;;;;;;;1.00;0.60;;;;;;;6.69;100.00;99564.35;88430;274;136311;-78
2023/10/16 02:35:57;;;;;;;1.60;0.40;;;;;;;6.71;100.00;99562.94;88679;278;25216;-76
2023/10/16 02:37:59;;;;;;;3.00;0.80;;;;;;;6.73;100.00;99566.14;88450;274;135962;-75
2023/10/16 02:40:08;;;;;;;1.60;0.50;;;;;;;6.77;100.00;99563.80;88505;282;25568;-75
2023/10/16 02:42:11;;;;;;;1.40;0.70;;;;;;;6.79;100.00;99567.59;88484;282;24055;-74
2023/10/16 02:44:17;;;;;;;0.50;0.30;;;;;;;6.80;100.00;99561.27;88501;282;136280;-76
2023/10/16 02:46:21;;;;;;;1.70;0.40;;;;;;;6.80;100.00;99562.31;88607;278;22724;-76
2023/10/16 02:48:23;;;;;;;0.50;0.30;;;;;;;6.79;100.00;99565.42;88523;281;136270;-74
2023/10/16 02:50:26;;;;;;;2.50;0.80;;;;;;;6.79;100.00;99563.38;88609;273;22545;-76
2023/10/16 02:52:30;;;;;;;1.20;0.20;;;;;;;6.78;100.00;99568.91;88449;280;136443;-71
2023/10/16 02:54:34;;;;;;;1.70;0.30;;;;;;;6.77;100.00;99568.16;88733;281;22526;-77
2023/10/16 02:56:36;;;;;;;1.90;0.20;;;;;;;6.75;100.00;99565.20;88570;280;136511;-77
2023/10/16 02:58:42;;;;;;;1.80;0.50;;;;;;;6.75;100.00;99562.02;88528;275;24019;-77
2023/10/16 03:00:49;;;;;;;0.90;0.30;;;;;;;6.74;100.00;99561.15;88510;278;136829;-77
2023/10/16 03:02:57;;;;;;;1.50;0.60;;;;;;;6.72;100.00;99560.02;88577;273;25118;-78
2023/10/16 03:05:11;;;;;;;0.30;0.20;;;;;;;6.69;100.00;99559.12;88640;273;136358;-76
2023/10/16 03:07:13;;;;;;;2.50;0.20;;;;;;;6.66;100.00;99556.60;88514;279;22624;-76
2023/10/16 03:09:28;;;;;;;2.20;0.50;;;;;;;6.65;100.00;99553.23;88634;281;136572;-74
2023/10/16 03:11:32;;;;;;;2.30;0.30;;;;;;;6.64;100.00;99550.87;88569;281;24055;-75
2023/10/16 03:13:35;;;;;;;1.00;0.30;;;;;;;6.63;100.00;99556.04;88707;280;136393;-75
2023/10/16 03:15:41;;;;;;;1.70;0.30;;;;;;;6.63;100.00;99554.82;88645;277;25210;-76
2023/10/16 03:17:44;;;;;;;4.40;0.50;;;;;;;6.63;100.00;99552.70;88554;282;136837;-70
2023/10/16 03:19:48;;;;;;;1.40;0.60;;;;;;;6.65;100.00;99553.27;88532;281;24014;-74
2023/10/16 03:21:50;;;;;;;2.10;0.40;;;;;;;6.62;100.00;99548.20;88514;281;136321;-74
2023/10/16 03:23:52;;;;;;;4.90;0.40;;;;;;;6.62;100.00;99553.29;88607;273;25103;-68
2023/10/16 03:25:56;;;;;;;0.70;0.30;;;;;;;6.62;100.00;99554.67;88527;281;135969;-76
2023/10/16 03:27:59;;;;;;;1.50;1.10;;;;;;;6.62;100.00;99556.37;88619;273;25215;-77
2023/10/16 03:30:01;;;;;;;2.30;0.70;;;;;;;6.60;100.00;99553.98;88516;277;135961;-73
2023/10/16 03:32:03;;;;;;;1.50;0.60;;;;;;;6.57;100.00;99562.14;88500;280;136713;-72
2023/10/16 03:34:11;;;;;;;1.40;0.40;;;;;;;6.53;100.00;99560.36;88811;280;23983;-77
2023/10/16 03:36:15;;;;;;;1.40;1.00;;;;;;;6.52;100.00;99561.25;88877;273;136425;-73
2023/10/16 03:38:34;;;;;;;2.60;0.90;;;;;;;6.51;100.00;99564.04;88744;273;24133;-73
2023/10/16 03:40:37;;;;;;;1.00;0.70;;;;;;;6.49;100.00;99562.49;88546;281;136404;-77
2023/10/16 03:42:40;;;;;;;2.30;0.50;;;;;;;6.49;100.00;99564.82;88594;281;22544;-79
2023/10/16 03:44:42;;;;;;;1.00;0.70;;;;;;;6.46;100.00;99568.31;88541;280;136269;-72
2023/10/16 03:46:44;;;;;;;2.20;0.70;;;;;;;6.44;100.00;99571.05;88647;280;25346;-73
2023/10/16 03:48:46;;;;;;;0.60;0.30;;;;;;;6.42;100.00;99572.83;88486;275;136219;-76
2023/10/16 03:50:55;;;;;;;2.20;0.40;;;;;;;6.41;100.00;99573.95;88638;280;22553;-76
2023/10/16 03:52:57;;;;;;;1.40;0.50;;;;;;;6.40;100.00;99572.36;88447;274;136428;-77
2023/10/16 03:57:20;;;;;;;3.40;0.60;;;;;;;6.40;100.00;99568.33;88379;280;137426;-74
2023/10/16 03:59:22;;;;;;;4.40;1.40;;;;;;;6.41;100.00;99571.31;88555;280;24013;-75
2023/10/16 04:01:27;;;;;;;1.70;0.70;;;;;;;6.44;100.00;99566.30;88299;273;136626;-73
2023/10/16 04:03:45;;;;;;;1.10;0.70;;;;;;;6.45;100.00;99565.41;88822;273;25083;-75
2023/10/16 04:05:50;;;;;;;3.40;1.20;;;;;;;6.46;100.00;99562.52;88264;273;136083;-76
2023/10/16 04:07:51;;;;;;;2.20;1.00;;;;;;;6.45;100.00;99556.58;88715;273;22600;-75
2023/10/16 04:09:54;;;;;;;1.10;0.90;;;;;;;6.49;100.00;99559.20;88419;274;136590;-75
2023/10/16 04:11:57;;;;;;;1.60;1.00;;;;;;;6.50;100.00;99554.24;88579;277;21518;-75
2023/10/16 04:13:59;;;;;;;4.20;1.10;;;;;;;6.51;100.00;99551.61;88839;273;136576;-78
2023/10/16 04:20:44;;;;;;;1.50;1.20;;;;;;;6.55;100.00;99548.38;89408;280;136895;-72
2023/10/16 04:22:57;;;;;;;1.70;1.10;;;;;;;6.57;100.00;99551.83;88929;281;25083;-70
2023/10/16 04:24:59;;;;;;;1.20;1.10;;;;;;;6.57;100.00;99551.63;88353;277;136864;-73
2023/10/16 04:32:06;;;;;;;3.20;1.40;;;;;;;6.47;100.00;99543.90;88319;273;25083;-74
2023/10/16 04:33:48;;;;;;;3.80;1.50;;;;;;;6.54;100.00;99563.38;88299;279;136472;-77
2023/10/16 04:45:28;;;;;;;3.00;1.30;;;;;;;6.47;100.00;99562.27;88414;278;136874;-73
2023/10/16 04:47:02;;;;;;;2.50;1.20;;;;;;;6.48;100.00;99562.81;88436;273;22633;-74
2023/10/16 04:49:05;;;;;;;2.00;1.30;;;;;;;6.50;100.00;99563.68;88452;273;136795;-73
2023/10/16 04:51:09;;;;;;;3.60;1.60;;;;;;;6.51;100.00;99566.02;88518;277;22530;-71
2023/10/16 04:53:39;;;;;;;3.50;1.70;;;;;;;6.52;100.00;99564.26;88408;281;136390;-72
2023/10/16 05:00:54;;;;;;;3.10;1.90;;;;;;;6.54;100.00;99554.80;88490;277;137669;-77
2023/10/16 05:02:52;;;;;;;2.80;1.60;;;;;;;6.58;100.00;99544.63;91252;281;22510;-74
2023/10/16 05:07:34;;;;;;;3.70;2.50;;;;;;;6.68;100.00;99546.89;88313;274;22596;-73
2023/10/16 05:10:12;;;;;;;2.80;2.20;;;;;;;6.72;100.00;99551.79;88436;274;136524;-72
2023/10/16 05:19:17;;;;;;;4.60;2.80;;;;;;;6.78;100.00;99557.46;88493;272;22580;-76
2023/10/16 05:21:51;;;;;;;3.10;2.40;;;;;;;6.78;100.00;99556.16;88354;273;136397;-74
2023/10/16 06:15:22;;;;;;;5.00;4.50;;;;;;;6.97;100.00;99575.86;88470;273;22546;-77
2023/10/16 06:17:24;;;;;;;8.80;4.20;;;;;;;6.99;100.00;99576.21;88309;273;136640;-79
2023/10/16 06:19:26;;;;;;;8.80;3.60;;;;;;;6.99;100.00;99582.54;88488;277;22631;-80
2023/10/16 06:21:28;;;;;;;6.40;3.50;;;;;;;6.97;100.00;99572.67;88571;277;138007;-79
2023/10/16 06:23:29;;;;;;;4.30;3.60;;;;;;;6.96;100.00;99568.17;88718;274;25358;-77
2023/10/16 06:25:35;;;;;;;6.60;4.30;;;;;;;6.98;100.00;99567.06;88688;277;138026;-76
2023/10/16 06:27:41;;;;;;;8.20;3.50;;;;;;;7.02;100.00;99571.39;88465;274;22547;-77
2023/10/16 06:29:50;;;;;;;7.30;4.80;;;;;;;7.04;100.00;99578.88;88396;282;136277;-78
2023/10/16 06:31:58;;;;;;;5.40;3.60;;;;;;;7.03;100.00;99578.33;88409;277;22527;-76
2023/10/16 06:34:05;;;;;;;5.60;3.50;;;;;;;7.01;100.00;99580.85;88415;273;137349;-76
2023/10/16 06:36:10;;;;;;;5.70;3.20;;;;;;;7.03;100.00;99583.80;88302;273;136779;-76
2023/10/16 06:38:14;;;;;;;8.10;4.10;;;;;;;7.05;100.00;99586.96;88442;273;25229;-76
2023/10/16 06:40:17;;;;;;;7.40;3.70;;;;;;;7.04;100.00;99588.86;88497;273;136718;-74
2023/10/16 06:42:19;;;;;;;7.70;4.10;;;;;;;7.04;100.00;99598.53;88586;277;24058;-76
2023/10/16 06:44:28;;;;;;;6.60;3.80;;;;;;;7.02;100.00;99601.23;88366;277;137095;-80
2023/10/16 06:46:31;;;;;;;6.00;3.90;;;;;;;7.04;100.00;99604.92;88364;273;24034;-77
2023/10/16 06:48:37;;;;;;;6.80;4.40;;;;;;;7.02;100.00;99609.66;88367;273;137637;-78
2023/10/16 06:50:45;;;;;;;6.20;4.00;;;;;;;7.04;100.00;99608.39;88748;279;22531;-79
2023/10/16 06:52:48;;;;;;;5.10;3.80;;;;;;;7.10;100.00;99603.04;88396;273;136530;-75
2023/10/16 06:54:50;;;;;;;10.60;4.80;;;;;;;7.11;100.00;99601.07;88553;275;22535;-79
2023/10/16 06:56:52;;;;;;;6.30;4.30;;;;;;;7.08;100.00;99601.19;88181;274;136715;-77
2023/10/16 06:58:56;;;;;;;6.30;3.90;;;;;;;7.08;100.00;99603.59;88435;277;24094;-78
2023/10/16 07:00:58;;;;;;;5.80;4.10;;;;;;;7.06;100.00;99601.52;88481;280;136473;-81
2023/10/16 07:03:09;;;;;;;11.90;4.70;;;;;;;7.06;100.00;99602.61;88530;280;24360;-77
2023/10/16 07:05:13;;;;;;;7.20;4.70;;;;;;;7.07;100.00;99600.88;88350;273;136764;-76
2023/10/16 07:07:16;;;;;;;7.10;4.50;;;;;;;7.08;100.00;99592.09;88586;281;22612;-77
2023/10/16 07:09:22;;;;;;;8.20;4.50;;;;;;;7.12;100.00;99595.66;88345;281;136812;-81
2023/10/16 07:11:24;;;;;;;7.70;4.80;;;;;;;7.16;100.00;99591.83;88474;273;25283;-80
2023/10/16 07:13:31;;;;;;;7.20;4.10;;;;;;;7.20;100.00;99587.08;88326;280;137598;-77
2023/10/16 07:15:33;;;;;;;4.10;3.70;;;;;;;7.26;100.00;99590.25;88445;280;25256;-78
2023/10/16 07:17:35;;;;;;;7.40;4.00;;;;;;;7.30;100.00;99585.52;88255;273;138041;-75
2023/10/16 07:19:41;;;;;;;;;;;;;;;7.33;100.00;99586.95;88449;277;22800;-78
2023/10/16 07:21:48;;;;;;;5.60;4.60;;;;;;;7.35;100.00;99584.89;88358;280;124300;-75
2023/10/16 07:23:53;;;;;;;5.40;3.70;;;;;;;7.40;100.00;99583.30;88494;277;22545;-74
2023/10/16 07:25:59;;;;;;;7.70;4.80;;;;;;;7.46;100.00;99581.91;88348;274;137288;-75
2023/10/16 07:28:01;;;;;;;6.60;3.60;;;;;;;7.50;100.00;99582.41;88332;273;22608;-75
2023/10/16 07:30:21;;;;;;;6.70;4.40;;;;;;;7.54;100.00;99585.98;88318;280;23086;-75
2023/10/16 07:32:23;;;;;;;11.10;4.90;;;;;;;7.61;100.00;99589.95;88420;273;136490;-74
2023/10/16 07:34:25;;;;;;;8.30;3.90;;;;;;;7.65;100.00;99592.11;88535;277;25170;-75
2023/10/16 07:36:27;;;;;;;8.30;4.30;;;;;;;7.64;100.00;99592.23;88368;273;136616;-74
2023/10/16 07:38:30;;;;;;;10.00;3.70;;;;;;;7.64;100.00;99587.27;88314;273;24546;-76
2023/10/16 07:40:33;;;;;;;6.10;4.40;;;;;;;7.62;100.00;99587.48;88420;273;136861;-74
2023/10/16 07:42:35;;;;;;;5.10;3.40;;;;;;;7.62;100.00;99588.91;88509;277;22609;-75
2023/10/16 07:44:41;;;;;;;;;;;;;;;7.65;100.00;99593.14;88212;274;137354;-75
2023/10/16 07:46:44;;;;;;;7.20;4.60;;;;;;;7.69;100.00;99593.31;88618;273;23707;-77
2023/10/16 07:48:50;;;;;;;7.70;3.90;;;;;;;7.76;100.00;99594.41;88457;275;136378;-74
2023/10/16 07:50:53;;;;;;;6.70;4.70;;;;;;;7.83;100.00;99591.45;88562;277;24098;-76
2023/10/16 07:52:55;;;;;;;8.30;4.40;;;;;;;7.88;100.00;99596.33;88854;273;136885;-73
2023/10/16 07:54:58;;;;;;;5.20;3.50;;;;;;;7.95;100.00;99597.24;88633;279;24053;-75
2023/10/16 07:57:03;;;;;;;6.80;4.30;;;;;;;7.98;100.00;99596.66;88436;273;136748;-70
2023/10/16 07:59:08;;;;;;;9.30;6.20;;;;;;;7.99;100.00;99594.98;88394;273;25429;-74
2023/10/16 08:03:14;;;;;;;9.30;3.80;;;;;;;8.06;100.00;99595.03;88527;272;25117;-73
2023/10/16 08:05:16;;;;;;;6.50;3.80;;;;;;;8.08;100.00;99593.70;88350;272;136885;-75
2023/10/16 08:07:18;;;;;;;5.60;3.40;;;;;;;8.13;100.00;99595.41;88321;275;22546;-76
2023/10/16 08:11:24;;;;;;;6.00;2.90;;;;;;;8.20;100.00;99586.17;88411;273;25360;-73
2023/10/16 08:13:27;;;;;;;5.40;3.30;;;;;;;8.21;100.00;99589.64;88354;273;136534;-74
2023/10/16 08:15:31;;;;;;;7.40;3.70;;;;;;;8.26;100.00;99587.54;88508;273;23719;-76
2023/10/16 08:17:32;;;;;;;6.10;3.00;;;;;;;8.33;100.00;99589.30;88342;273;136841;-77
2023/10/16 08:19:35;;;;;;;4.70;2.70;;;;;;;8.37;100.00;99586.03;88512;273;22608;-75
2023/10/16 08:21:39;;;;;;;3.80;2.10;;;;;;;8.38;100.00;99588.32;88289;273;136385;-74
2023/10/16 08:23:45;;;;;;;5.10;2.30;;;;;;;8.39;100.00;99595.15;88444;279;22677;-76
2023/10/16 08:25:48;;;;;;;3.10;1.60;;;;;;;8.41;100.00;99598.68;88409;274;136733;-70
2023/10/16 08:27:50;;;;;;;7.20;3.00;;;;;;;8.44;100.00;99603.10;88608;274;22549;-76
2023/10/16 08:29:58;;;;;;;6.20;2.60;;;;;;;8.48;100.00;99599.88;88446;274;136936;-74
2023/10/16 08:34:42;;;;;;;4.20;2.50;;;;;;;8.64;100.00;99602.69;88108;283;22544;-76
2023/10/16 08:36:44;;;;;;;8.40;2.90;;;;;;;8.69;100.00;99600.67;88052;282;138019;-73
2023/10/16 08:38:52;;;;;;;9.70;2.90;;;;;;;8.75;100.00;99602.58;88121;278;22553;-74
2023/10/16 08:40:58;;;;;;;8.90;5.10;;;;;;;8.80;100.00;99600.00;88295;272;136462;-74
2023/10/16 08:43:01;;;;;;;8.30;3.20;;;;;;;8.82;100.00;99601.17;88425;280;22547;-74
2023/10/16 08:45:23;;;;;;;5.30;2.40;;;;;;;8.83;100.00;99598.23;88421;274;136722;-75
2023/10/16 08:47:27;;;;;;;6.40;3.00;;;;;;;8.84;100.00;99600.64;88347;279;25112;-72
2023/10/16 08:49:30;;;;;;;4.80;2.30;;;;;;;8.91;100.00;99600.73;88355;277;136922;-76
2023/10/16 08:51:38;;;;;;;6.80;2.10;;;;;;;8.98;100.00;99603.92;88476;281;23291;-75
2023/10/16 08:53:42;;;;;;;6.80;2.60;;;;;;;9.02;100.00;99600.34;88072;273;558648;-75
2023/10/16 08:55:44;;;;;;;10.10;4.00;;;;;;;9.09;100.00;99598.90;88451;278;22619;-73
2023/10/16 08:57:48;;;;;;;6.50;5.80;;;;;;;9.15;100.00;99602.21;88523;277;136885;-74
2023/10/16 08:59:50;;;;;;;5.40;2.40;;;;;;;9.20;100.00;99600.27;88424;275;25167;-75
2023/10/16 09:01:54;;;;;;;3.50;1.60;;;;;;;9.21;100.00;99604.85;88313;273;136581;-75
2023/10/16 09:04:10;;;;;;;10.60;2.30;;;;;;;9.19;100.00;99604.11;88490;280;22544;-76
2023/10/16 09:06:24;;;;;;;6.70;2.80;;;;;;;9.18;100.00;99604.36;88391;274;22526;-74
2023/10/16 09:08:29;;;;;;;8.30;2.60;;;;;;;9.20;100.00;99602.88;88762;280;136545;-76
2023/10/16 09:10:33;;;;;;;5.40;2.30;;;;;;;9.22;100.00;99601.67;88778;280;22733;-78
2023/10/16 09:12:45;;;;;;;7.50;3.00;;;;;;;9.27;100.00;99600.92;88390;277;136821;-76
2023/10/16 09:14:48;;;;;;;4.20;2.20;;;;;;;9.36;100.00;99594.12;88476;274;22708;-77
2023/10/16 09:16:51;;;;;;;5.10;2.90;;;;;;;9.38;100.00;99578.25;88291;273;137015;-77
2023/10/16 09:18:56;;;;;;;14.00;12.10;;;;;;;9.58;100.00;99586.50;88521;273;22540;-74
2023/10/16 09:21:00;;;;;;;5.60;3.70;;;;;;;9.68;100.00;99583.75;88482;273;137113;-76
2023/10/16 09:23:02;;;;;;;4.10;2.00;;;;;;;9.73;100.00;99576.44;88539;274;25228;-74
2023/10/16 09:25:08;;;;;;;7.90;2.50;;;;;;;9.79;100.00;99571.58;88374;273;137023;-82
2023/10/16 09:27:30;;;;;;;7.00;2.00;;;;;;;9.86;100.00;99574.98;88479;274;22540;-83
2023/10/16 09:29:35;;;;;;;5.40;1.80;;;;;;;9.94;100.00;99576.96;88384;277;136790;-82
2023/10/16 09:31:37;;;;;;;7.30;2.40;;;;;;;9.97;100.00;99572.71;90142;280;22931;-75
2023/10/16 09:33:39;;;;;;;6.50;1.60;;;;;;;9.99;100.00;99573.13;90374;273;137639;-80
2023/10/16 09:35:45;;;;;;;4.40;1.60;;;;;;;10.05;100.00;99571.73;89800;281;23708;-82
2023/10/16 09:37:52;;;;;;;5.90;1.80;;;;;;;10.12;100.00;99572.60;88610;277;138117;-76
2023/10/16 09:39:56;;;;;;;3.90;1.60;;;;;;;10.21;100.00;99565.98;88661;274;22558;-81
2023/10/16 09:41:59;;;;;;;6.70;1.40;;;;;;;10.29;100.00;99570.31;88866;274;136626;-78
2023/10/16 09:44:07;;;;;;;3.80;1.40;;;;;;;10.36;100.00;99571.98;89139;281;22557;-86
2023/10/16 09:48:33;;;;;;;3.80;0.80;;;;;;;10.44;100.00;99570.20;88724;277;136696;-74
2023/10/16 09:50:39;;;;;;;4.70;1.50;;;;;;;10.43;99.74;99573.53;90352;274;22696;-77
2023/10/16 09:52:40;;;;;;;6.80;1.60;;;;;;;10.44;98.05;99576.04;89749;278;138198;-82
2023/10/16 09:54:45;;;;;;;2.70;1.10;;;;;;;10.47;98.11;99581.53;88551;275;22605;-79
2023/10/16 09:56:53;;;;;;;4.00;1.70;;;;;;;10.48;96.95;99576.19;88511;277;137870;-86
2023/10/16 09:58:56;;;;;;;3.10;1.00;;;;;;;10.47;95.50;99580.46;88512;274;24763;-84
2023/10/16 10:01:06;;;;;;;6.80;2.50;;;;;;;10.42;93.61;99574.84;88783;274;136655;-68
2023/10/16 10:03:12;;;;;;;6.20;2.60;;;;;;;10.41;94.42;99575.38;88609;278;25158;-85
2023/10/16 10:05:21;;;;;;;3.90;2.80;;;;;;;10.44;93.68;99570.98;88357;274;136648;-75
2023/10/16 10:07:34;;;;;;;3.00;2.20;;;;;;;10.47;92.65;99566.15;88491;273;22617;-72
2023/10/16 10:09:42;;;;;;;4.20;2.50;;;;;;;10.47;90.81;99572.22;88454;274;136961;-83
2023/10/16 10:12:07;;;;;;;7.80;2.50;;;;;;;10.38;91.98;99563.98;88484;273;22529;-79
2023/10/16 10:16:29;;;;;;;6.50;2.10;;;;;;;10.39;90.82;99569.94;88371;277;138184;-77
2023/10/16 10:18:42;;;;;;;6.20;1.50;;;;;;;10.36;89.82;99569.11;88555;274;22536;-79
2023/10/16 10:20:48;;;;;;;4.20;1.60;;;;;;;10.34;89.07;99568.13;88408;273;136828;-82
2023/10/16 10:22:56;;;;;;;4.40;1.80;;;;;;;10.32;89.05;99569.39;88539;274;22544;-76
2023/10/16 10:25:22;;;;;;;3.80;1.70;;;;;;;10.33;87.85;99575.10;88419;275;136862;-81
2023/10/16 10:27:28;;;;;;;3.70;1.10;;;;;;;10.26;87.69;99575.67;88634;275;22537;-80
2023/10/16 10:29:30;;;;;;;4.70;1.50;;;;;;;10.18;89.30;99567.73;88380;274;136635;-81
2023/10/16 10:31:36;;;;;;;5.90;1.20;;;;;;;10.11;89.06;99568.66;89646;276;22878;-81
2023/10/16 10:33:51;;;;;;;8.10;2.20;;;;;;;10.10;89.55;99581.56;89751;280;136535;-82
2023/10/16 10:36:27;;;;;;;6.40;2.30;;;;;;;10.10;89.72;99582.02;90767;273;25387;-82
2023/10/16 10:38:29;;;;;;;5.20;1.90;;;;;;;10.15;90.64;99586.24;88503;274;26432;-82
2023/10/16 10:40:33;;;;;;;2.60;1.10;;;;;;;10.15;88.08;99573.26;88493;273;136563;-83
2023/10/16 10:42:38;;;;;;;1.90;0.90;;;;;;;10.17;88.81;99570.92;88481;274;22596;-80
2023/10/16 10:44:53;;;;;;;5.10;1.30;;;;;;;10.20;88.72;99568.30;88504;273;137744;-86
2023/10/16 10:46:55;;;;;;;5.70;1.60;;;;;;;10.28;87.76;99569.79;88586;273;25213;-85
2023/10/16 10:49:01;;;;;;;3.50;0.90;;;;;;;10.35;87.84;99577.35;88348;273;137621;-76
2023/10/16 10:51:13;;;;;;;1.40;0.80;;;;;;;10.41;87.52;99572.91;88362;277;22528;-79
2023/10/16 10:53:15;;;;;;;3.90;1.30;;;;;;;10.42;83.64;99572.18;88515;273;136889;-80
2023/10/16 10:55:18;;;;;;;3.70;0.70;;;;;;;10.41;84.01;99581.80;88604;277;23618;-79
2023/10/16 10:57:24;;;;;;;2.40;1.00;;;;;;;10.37;84.30;99582.84;88785;281;136121;-80
2023/10/16 10:59:45;;;;;;;4.30;0.80;;;;;;;10.35;83.95;99578.61;88771;280;24081;-81
2023/10/16 11:01:54;;;;;;;5.20;0.80;;;;;;;10.36;84.56;99581.94;88460;273;136831;-83
2023/10/16 11:03:56;;;;;;;2.80;1.00;;;;;;;10.40;84.97;99585.84;88611;275;25435;-82
2023/10/16 11:05:59;;;;;;;3.90;0.90;;;;;;;10.46;85.09;99586.77;88384;273;136948;-83
2023/10/16 11:10:13;;;;;;;2.40;0.60;;;;;;;10.54;84.07;99587.66;88449;281;25084;-78
2023/10/16 11:12:16;;;;;;;4.50;0.70;;;;;;;10.56;85.35;99588.29;88945;273;137813;-76
2023/10/16 11:14:34;;;;;;;3.60;0.70;;;;;;;10.59;84.58;99586.96;89095;278;22469;-79
2023/10/16 11:16:48;;;;;;;1.80;0.60;;;;;;;10.62;84.95;99589.86;88525;274;136921;-80
2023/10/16 11:19:00;;;;;;;5.10;1.30;;;;;;;10.65;84.93;99589.50;88559;273;24033;-80
2023/10/16 11:21:07;;;;;;;13.60;2.00;;;;;;;10.67;85.42;99590.94;88457;273;136728;-82
2023/10/16 11:23:13;;;;;;;5.00;1.70;;;;;;;10.67;84.54;99589.45;88465;273;22528;-74
2023/10/16 11:25:16;;;;;;;2.00;0.80;;;;;;;10.63;83.30;99591.11;88501;273;136947;-81
2023/10/16 11:27:17;;;;;;;3.60;0.80;;;;;;;10.52;82.87;99588.94;88759;279;22553;-78
2023/10/16 11:29:20;;;;;;;3.50;0.60;;;;;;;10.41;83.72;99592.64;90417;280;137768;-77
2023/10/16 11:31:21;;;;;;;2.80;0.60;;;;;;;10.28;84.13;99593.14;88933;280;24009;-78
2023/10/16 11:33:34;;;;;;;3.40;0.70;;;;;;;10.20;84.30;99594.98;89101;274;136677;-81
2023/10/16 11:35:36;;;;;;;3.90;0.90;;;;;;;10.11;84.21;99597.63;89698;273;23752;-79
2023/10/16 11:37:39;;;;;;;4.90;1.10;;;;;;;10.05;84.97;99597.66;89201;279;136569;-71